Disclaimer

Please do not use the information listed here in-flight or in-navigation, as they are not provided to us by the airports but are provided by volunteers, so they might be outdated.

Search


Regions


Airport information page

Radio informations:
Tower (TWR) - 118.9 MHz
KINGFISH NOVEMBE - 139.5 MHz
Automatic Terminal Information Service (ATIS) - 126.45 MHz
Approach (APP) - 121.1 MHz

Airport informations:
Latitude: 25° 15' 40.05" N
Longitude: 051° 33' 54.20" E
Elevation: 35 feet - 11 meters
Operating hours: N/A
Operating agency: Military-civil joint use airport
Timezone: UTC+3
Fuel: A1 (Qatar Jet Fuel Co fone C974-462-2477)

Runway information:
16/34 - 15000 x 151 feet< - >4572 x 46 meters

Recent METARs:
OTBD 151100Z 12013KT CAVOK 29/23 Q1012 NOSIG
OTBD 151130Z 11014KT CAVOK 29/23 Q1011 NOSIG
OTBD 151130Z 11014KT CAVOK 29/23 Q1011 NOSIG

Airport on the map: